createdAt,value
2019-04-05T00:00:09.316Z,20.32
2019-04-05T00:01:15.532Z,23.00
2019-04-05T00:02:20.344Z,21.82
2019-04-05T00:03:24.805Z,21.05
2019-04-05T00:04:30.341Z,26.50
2019-04-05T00:05:34.872Z,18.32
2019-04-05T00:06:39.336Z,21.12
2019-04-05T00:07:43.843Z,24.52
2019-04-05T00:08:48.306Z,24.57
2019-04-05T00:09:52.788Z,20.30
2019-04-05T00:10:57.620Z,19.37
2019-04-05T00:12:02.095Z,20.17
2019-04-05T00:13:06.649Z,19.75
2019-04-05T00:14:11.720Z,26.02
2019-04-05T00:15:16.330Z,20.72
2019-04-05T00:16:21.257Z,20.62
2019-04-05T00:17:26.038Z,21.87
2019-04-05T00:18:30.508Z,20.72
2019-04-05T00:19:34.968Z,24.18
2019-04-05T00:20:39.483Z,24.07
2019-04-05T00:21:43.921Z,19.98
2019-04-05T00:22:48.702Z,20.25
2019-04-05T00:23:53.561Z,21.27
2019-04-05T00:24:58.028Z,24.77
2019-04-05T00:26:02.891Z,24.15
2019-04-05T00:27:07.376Z,22.20
2019-04-05T00:28:11.856Z,25.48
2019-04-05T00:29:16.326Z,22.85
2019-04-05T00:30:21.028Z,22.75
2019-04-05T00:31:25.669Z,23.85
2019-04-05T00:32:30.149Z,25.35
2019-04-05T00:33:34.616Z,23.85
2019-04-05T00:34:39.085Z,20.82
2019-04-05T00:35:43.628Z,22.95
2019-04-05T00:36:48.098Z,26.55
2019-04-05T00:37:52.583Z,24.63
2019-04-05T00:38:57.049Z,25.23
2019-04-05T00:40:01.799Z,23.60
2019-04-05T00:41:06.265Z,20.02
2019-04-05T00:42:10.736Z,23.67
2019-04-05T00:43:15.605Z,25.00
2019-04-05T00:44:20.075Z,22.77
2019-04-05T00:45:28.530Z,23.00
2019-04-05T00:46:30.713Z,24.25
2019-04-05T00:47:35.247Z,22.75
2019-04-05T00:48:41.036Z,20.65
2019-04-05T00:49:45.789Z,24.10
2019-04-05T00:50:50.252Z,22.93
2019-04-05T00:51:55.183Z,25.00
2019-04-05T00:53:00.011Z,26.90
2019-04-05T00:54:04.616Z,29.12
2019-04-05T00:55:10.459Z,25.37
2019-04-05T00:56:14.924Z,26.27
2019-04-05T00:57:19.391Z,23.38
2019-04-05T00:58:23.887Z,22.95
2019-04-05T00:59:28.732Z,23.95
2019-04-05T01:00:33.195Z,23.50
2019-04-05T01:01:37.727Z,24.85
2019-04-05T01:02:42.189Z,24.25
2019-04-05T01:03:46.976Z,23.52
2019-04-05T01:04:51.447Z,25.95
2019-04-05T01:05:55.984Z,24.77
2019-04-05T01:07:00.454Z,22.02
2019-04-05T01:08:05.336Z,25.82
2019-04-05T01:09:09.865Z,24.52
2019-04-05T01:10:14.472Z,24.50
2019-04-05T01:11:19.376Z,23.30
2019-04-05T01:12:25.496Z,23.35
2019-04-05T01:13:31.778Z,22.60
2019-04-05T01:14:37.181Z,25.68
2019-04-05T01:15:41.647Z,24.02
2019-04-05T01:16:46.548Z,27.90
2019-04-05T01:17:51.090Z,21.85
2019-04-05T01:18:55.908Z,24.57
2019-04-05T01:20:03.189Z,23.50
2019-04-05T01:21:10.701Z,24.20
2019-04-05T01:22:16.705Z,24.35
2019-04-05T01:23:22.151Z,23.70
2019-04-05T01:24:27.147Z,25.45
2019-04-05T01:25:31.774Z,25.12
2019-04-05T01:26:37.509Z,22.20
2019-04-05T01:27:43.151Z,25.17
2019-04-05T01:28:47.695Z,25.08
2019-04-05T01:29:52.164Z,23.85
2019-04-05T01:30:56.924Z,27.13
2019-04-05T01:32:01.709Z,23.70
2019-04-05T01:33:06.633Z,24.57
2019-04-05T01:34:11.166Z,25.08
2019-04-05T01:35:16.017Z,23.95
2019-04-05T01:36:20.460Z,27.52
2019-04-05T01:37:25.749Z,27.55
2019-04-05T01:38:30.303Z,26.48
2019-04-05T01:39:35.054Z,23.80
2019-04-05T01:40:41.426Z,24.37
2019-04-05T01:41:46.226Z,28.67
2019-04-05T01:42:51.136Z,25.30
2019-04-05T01:43:55.628Z,29.05
2019-04-05T01:45:00.786Z,25.85
2019-04-05T01:46:05.696Z,28.38
2019-04-05T01:47:10.156Z,26.27
2019-04-05T01:48:14.615Z,28.00
2019-04-05T01:49:19.111Z,26.75
2019-04-05T01:50:23.971Z,26.55
2019-04-05T01:51:28.433Z,24.00
2019-04-05T01:52:33.095Z,28.80
2019-04-05T01:53:38.005Z,26.20
2019-04-05T01:54:42.534Z,31.35
2019-04-05T01:55:47.000Z,28.98
2019-04-05T01:56:51.467Z,30.17
2019-04-05T01:57:55.922Z,25.77
2019-04-05T01:59:00.408Z,26.90
2019-04-05T02:00:08.224Z,23.62
2019-04-05T02:01:13.169Z,25.77
2019-04-05T02:02:17.706Z,27.60
2019-04-05T02:03:22.177Z,28.17
2019-04-05T02:04:26.673Z,26.77
2019-04-05T02:05:31.206Z,26.23
2019-04-05T02:06:36.356Z,27.10
2019-04-05T02:07:41.256Z,27.82
2019-04-05T02:08:45.872Z,25.17
2019-04-05T02:09:50.470Z,24.35
2019-04-05T02:10:55.500Z,25.08
2019-04-05T02:12:00.039Z,26.10
2019-04-05T02:13:04.959Z,28.12
2019-04-05T02:14:09.631Z,31.05
2019-04-05T02:15:22.825Z,28.57
2019-04-05T02:16:27.614Z,27.02
2019-04-05T02:17:32.530Z,27.73
2019-04-05T02:18:38.037Z,25.72
2019-04-05T02:19:42.520Z,29.07
2019-04-05T02:20:47.046Z,26.87
2019-04-05T02:21:51.576Z,29.32
2019-04-05T02:22:57.079Z,28.67
2019-04-05T02:24:01.626Z,27.50
2019-04-05T02:25:07.323Z,25.48
2019-04-05T02:26:11.786Z,28.70
2019-04-05T02:27:16.613Z,29.52
2019-04-05T02:28:21.153Z,28.55
2019-04-05T02:29:25.641Z,27.77
2019-04-05T02:30:30.169Z,28.25
2019-04-05T02:31:34.630Z,29.63
2019-04-05T02:32:39.084Z,29.42
2019-04-05T02:33:44.006Z,25.97
2019-04-05T02:34:48.566Z,29.70
2019-04-05T02:35:53.015Z,30.95
2019-04-05T02:36:57.484Z,27.30
2019-04-05T02:38:01.942Z,28.15
2019-04-05T02:39:07.976Z,27.13
2019-04-05T02:40:15.406Z,29.52
2019-04-05T02:41:22.227Z,26.12
2019-04-05T02:42:27.125Z,28.98
2019-04-05T02:43:33.827Z,27.42
2019-04-05T02:44:39.539Z,25.32
2019-04-05T02:45:45.709Z,29.70
2019-04-05T02:46:51.938Z,27.07
2019-04-05T02:47:59.779Z,27.90
2019-04-05T02:49:05.778Z,28.80
2019-04-05T02:50:11.264Z,30.02
2019-04-05T02:51:19.744Z,28.02
2019-04-05T02:52:25.067Z,30.25
2019-04-05T02:53:31.472Z,26.02
2019-04-05T02:54:36.804Z,30.35
2019-04-05T02:55:43.146Z,29.60
2019-04-05T02:56:48.434Z,29.15
2019-04-05T02:57:55.303Z,27.50
2019-04-05T02:59:01.614Z,28.02
2019-04-05T03:00:06.236Z,29.98
2019-04-05T03:01:11.165Z,27.35
2019-04-05T03:02:16.568Z,26.70
2019-04-05T03:03:21.688Z,27.07
2019-04-05T03:04:26.579Z,26.68
2019-04-05T03:05:31.998Z,29.10
2019-04-05T03:06:37.073Z,29.67
2019-04-05T03:07:41.599Z,27.30
2019-04-05T03:08:46.853Z,28.35
2019-04-05T03:09:51.870Z,26.57
2019-04-05T03:11:02.137Z,27.62
2019-04-05T03:12:07.153Z,26.12
2019-04-05T03:13:11.605Z,31.15
2019-04-05T03:14:16.965Z,31.35
2019-04-05T03:15:21.453Z,29.20
2019-04-05T03:16:40.361Z,30.40
2019-04-05T03:17:37.834Z,27.42
2019-04-05T03:18:45.355Z,28.98
2019-04-05T03:19:52.668Z,26.60
2019-04-05T03:21:00.191Z,35.38
2019-04-05T03:22:07.130Z,31.10
2019-04-05T03:23:12.015Z,27.27
2019-04-05T03:24:19.524Z,32.13
2019-04-05T03:25:25.041Z,33.10
2019-04-05T03:26:32.854Z,31.05
2019-04-05T03:27:39.688Z,30.75
2019-04-05T03:28:47.189Z,29.10
2019-04-05T03:29:52.401Z,32.93
2019-04-05T03:30:57.465Z,30.05
2019-04-05T03:32:02.127Z,28.52
2019-04-05T03:33:07.211Z,30.15
2019-04-05T03:34:12.972Z,33.92
2019-04-05T03:35:18.560Z,30.50
2019-04-05T03:36:23.785Z,30.32
2019-04-05T03:37:29.193Z,29.23
2019-04-05T03:38:33.975Z,30.62
2019-04-05T03:39:39.024Z,32.17
2019-04-05T03:40:44.283Z,29.35
2019-04-05T03:41:49.455Z,28.77
2019-04-05T03:42:54.201Z,28.77
2019-04-05T03:43:58.929Z,28.85
2019-04-05T03:45:03.781Z,30.92
2019-04-05T03:46:09.074Z,31.27
2019-04-05T03:47:13.541Z,29.72
2019-04-05T03:48:18.259Z,32.40
2019-04-05T03:49:23.427Z,30.57
2019-04-05T03:50:27.990Z,30.40
2019-04-05T03:51:34.093Z,32.10
2019-04-05T03:52:39.493Z,31.97
2019-04-05T03:53:44.059Z,32.70
2019-04-05T03:54:49.256Z,31.68
2019-04-05T03:55:55.331Z,34.15
2019-04-05T03:57:00.399Z,31.45
2019-04-05T03:58:05.780Z,31.37
2019-04-05T03:59:10.447Z,33.28
2019-04-05T04:00:15.421Z,31.37
2019-04-05T04:01:20.107Z,33.38
2019-04-05T04:02:25.964Z,32.38
2019-04-05T04:03:31.416Z,31.33
2019-04-05T04:04:36.109Z,32.08
2019-04-05T04:05:40.804Z,32.53
2019-04-05T04:06:45.893Z,33.65
2019-04-05T04:07:50.359Z,33.42
2019-04-05T04:08:55.001Z,30.97
2019-04-05T04:09:59.557Z,33.45
2019-04-05T04:11:04.995Z,35.55
2019-04-05T04:12:09.714Z,34.27
2019-04-05T04:13:14.461Z,35.17
2019-04-05T04:14:20.804Z,40.58
2019-04-05T04:15:26.209Z,35.80
2019-04-05T04:16:31.064Z,40.25
2019-04-05T04:17:35.664Z,34.23
2019-04-05T04:18:41.058Z,41.80
2019-04-05T04:19:45.844Z,36.53
2019-04-05T04:20:53.521Z,36.58
2019-04-05T04:22:16.071Z,34.65
2019-04-05T04:23:23.130Z,38.20
2019-04-05T04:24:27.753Z,35.92
2019-04-05T04:25:32.977Z,34.53
2019-04-05T04:26:37.896Z,33.98
2019-04-05T04:27:42.351Z,35.65
2019-04-05T04:28:46.880Z,36.80
2019-04-05T04:29:52.207Z,38.13
2019-04-05T04:30:56.836Z,39.60
2019-04-05T04:32:01.492Z,35.58
2019-04-05T04:33:07.667Z,34.10
2019-04-05T04:34:12.789Z,38.40
2019-04-05T04:35:17.413Z,36.83
2019-04-05T04:36:22.419Z,35.73
2019-04-05T04:37:26.878Z,34.40
2019-04-05T04:38:32.487Z,35.33
2019-04-05T04:39:37.706Z,35.60
2019-04-05T04:40:42.635Z,36.25
2019-04-05T04:41:47.179Z,37.00
2019-04-05T04:42:52.011Z,40.05
2019-04-05T04:43:56.609Z,47.60
2019-04-05T04:45:11.806Z,44.90
2019-04-05T04:46:08.369Z,37.85
2019-04-05T04:47:25.400Z,40.38
2019-04-05T04:48:19.441Z,38.13
2019-04-05T04:49:24.371Z,37.35
2019-04-05T04:50:29.536Z,39.73
2019-04-05T04:51:35.062Z,37.85
2019-04-05T04:52:39.957Z,38.20
2019-04-05T04:53:44.947Z,37.20
2019-04-05T04:54:49.751Z,37.05
2019-04-05T04:55:54.207Z,35.85
2019-04-05T04:57:00.238Z,40.17
2019-04-05T04:58:04.956Z,37.80
2019-04-05T04:59:09.480Z,36.40
2019-04-05T05:00:14.609Z,41.63
2019-04-05T05:01:19.567Z,41.50
2019-04-05T05:02:24.130Z,40.75
2019-04-05T05:03:29.069Z,41.88
2019-04-05T05:04:33.751Z,39.08
2019-04-05T05:05:38.546Z,38.23
2019-04-05T05:06:43.485Z,41.08
2019-04-05T05:07:48.410Z,38.88
2019-04-05T05:08:52.939Z,36.28
2019-04-05T05:09:57.939Z,36.42
2019-04-05T05:11:13.939Z,38.58
2019-04-05T05:12:09.175Z,37.58
2019-04-05T05:13:13.703Z,42.08
2019-04-05T05:14:18.330Z,37.50
2019-04-05T05:15:23.127Z,39.95
2019-04-05T05:16:27.889Z,38.38
2019-04-05T05:17:38.323Z,40.98
2019-04-05T05:18:39.507Z,39.50
2019-04-05T05:19:44.201Z,40.23
2019-04-05T05:20:49.047Z,36.33
2019-04-05T05:21:53.638Z,39.13
2019-04-05T05:22:58.395Z,38.35
2019-04-05T05:24:03.029Z,41.63
2019-04-05T05:25:08.019Z,42.75
2019-04-05T05:26:12.885Z,41.80
2019-04-05T05:27:17.429Z,42.78
2019-04-05T05:28:22.123Z,40.30
2019-04-05T05:29:26.720Z,37.67
2019-04-05T05:30:31.442Z,38.98
2019-04-05T05:31:35.900Z,47.00
2019-04-05T05:32:40.670Z,39.55
2019-04-05T05:33:45.288Z,46.53
2019-04-05T05:35:01.317Z,39.23
2019-04-05T05:35:57.041Z,44.20
2019-04-05T05:37:01.880Z,37.93
2019-04-05T05:38:07.504Z,35.98
2019-04-05T05:39:12.097Z,34.13
2019-04-05T05:40:17.099Z,37.60
2019-04-05T05:41:21.589Z,46.55
2019-04-05T05:42:26.444Z,33.53
2019-04-05T05:43:31.187Z,35.60
2019-04-05T05:44:36.207Z,35.13
2019-04-05T05:45:40.751Z,36.15
2019-04-05T05:46:45.548Z,37.20
2019-04-05T05:47:52.087Z,37.85
2019-04-05T05:48:56.320Z,37.88
2019-04-05T05:50:00.943Z,35.40
2019-04-05T05:51:05.391Z,33.08
2019-04-05T05:52:10.464Z,31.57
2019-04-05T05:53:15.314Z,38.67
2019-04-05T05:54:19.761Z,44.45
2019-04-05T05:55:24.229Z,43.73
2019-04-05T05:56:28.985Z,54.00
2019-04-05T05:57:33.937Z,54.45
2019-04-05T05:58:39.651Z,43.00
2019-04-05T05:59:44.412Z,39.55
2019-04-05T06:00:48.877Z,34.27
2019-04-05T06:01:53.612Z,33.55
2019-04-05T06:02:58.384Z,30.32
2019-04-05T06:04:02.843Z,32.80
2019-04-05T06:05:07.449Z,33.25
2019-04-05T06:06:11.913Z,36.30
2019-04-05T06:07:16.451Z,35.45
2019-04-05T06:08:20.937Z,30.75
2019-04-05T06:09:25.681Z,35.05
2019-04-05T06:10:30.146Z,33.38
2019-04-05T06:11:34.601Z,35.80
2019-04-05T06:12:40.397Z,34.15
2019-04-05T06:13:45.216Z,33.55
2019-04-05T06:14:49.976Z,35.52
2019-04-05T06:15:54.445Z,33.53
2019-04-05T06:16:58.906Z,32.55
2019-04-05T06:18:04.801Z,37.03
2019-04-05T06:19:09.638Z,33.78
2019-04-05T06:20:17.308Z,32.25
2019-04-05T06:21:21.764Z,31.80
2019-04-05T06:22:26.235Z,31.27
2019-04-05T06:23:34.081Z,36.68
2019-04-05T06:24:37.202Z,30.57
2019-04-05T06:25:41.663Z,30.72
2019-04-05T06:26:46.133Z,34.67
2019-04-05T06:27:50.618Z,29.85
2019-04-05T06:28:55.214Z,31.77
2019-04-05T06:30:00.072Z,30.65
2019-04-05T06:31:04.893Z,30.00
2019-04-05T06:32:09.716Z,37.00
2019-04-05T06:33:14.196Z,36.35
2019-04-05T06:34:18.658Z,30.75
2019-04-05T06:35:23.454Z,33.10
2019-04-05T06:36:27.914Z,31.73
2019-04-05T06:37:32.379Z,33.60
2019-04-05T06:38:36.868Z,31.50
2019-04-05T06:39:41.330Z,32.45
2019-04-05T06:40:45.799Z,31.52
2019-04-05T06:41:50.264Z,28.95
2019-04-05T06:42:54.751Z,42.23
2019-04-05T06:43:59.211Z,33.75
2019-04-05T06:45:05.126Z,31.07
2019-04-05T06:46:09.674Z,28.42
2019-04-05T06:47:14.143Z,30.90
2019-04-05T06:48:19.818Z,29.92
2019-04-05T06:49:25.435Z,32.28
2019-04-05T06:50:30.252Z,32.67
2019-04-05T06:51:34.727Z,33.00
2019-04-05T06:52:39.189Z,29.30
2019-04-05T06:53:43.682Z,29.20
2019-04-05T06:54:48.207Z,32.30
2019-04-05T06:55:52.976Z,31.62
2019-04-05T06:56:57.440Z,29.67
2019-04-05T06:58:01.906Z,31.70
2019-04-05T06:59:06.399Z,28.35
2019-04-05T07:00:11.133Z,29.25
2019-04-05T07:01:15.676Z,31.82
2019-04-05T07:02:20.577Z,31.20
2019-04-05T07:03:26.663Z,29.65
2019-04-05T07:04:31.311Z,33.60
2019-04-05T07:05:35.756Z,31.27
2019-04-05T07:06:40.235Z,29.07
2019-04-05T07:07:44.720Z,27.00
2019-04-05T07:08:54.105Z,30.45
2019-04-05T07:09:55.469Z,29.18
2019-04-05T07:11:00.322Z,31.00
2019-04-05T07:12:04.867Z,38.13
2019-04-05T07:13:09.449Z,32.35
2019-04-05T07:14:14.152Z,34.63
2019-04-05T07:15:18.600Z,30.43
2019-04-05T07:16:23.136Z,31.15
2019-04-05T07:17:27.673Z,33.00
2019-04-05T07:18:36.010Z,32.60
2019-04-05T07:19:38.669Z,32.30
2019-04-05T07:20:43.214Z,31.02
2019-04-05T07:21:48.642Z,27.70
2019-04-05T07:22:53.183Z,30.27
2019-04-05T07:23:58.098Z,31.10
2019-04-05T07:25:02.718Z,31.82
2019-04-05T07:26:07.244Z,42.98
2019-04-05T07:27:11.716Z,29.40
2019-04-05T07:28:16.210Z,28.55
2019-04-05T07:29:20.700Z,27.93
2019-04-05T07:30:25.228Z,27.13
2019-04-05T07:31:29.987Z,28.90
2019-04-05T07:32:34.452Z,29.85
2019-04-05T07:33:38.939Z,28.45
2019-04-05T07:34:43.405Z,31.45
2019-04-05T07:35:48.242Z,30.90
2019-04-05T07:36:52.718Z,26.00
2019-04-05T07:37:57.175Z,30.48
2019-04-05T07:39:02.639Z,26.80
2019-04-05T07:40:08.310Z,37.75
2019-04-05T07:41:12.780Z,30.17
2019-04-05T07:42:17.242Z,29.57
2019-04-05T07:43:21.719Z,27.02
2019-04-05T07:44:27.173Z,29.55
2019-04-05T07:45:31.953Z,26.17
2019-04-05T07:46:36.683Z,30.32
2019-04-05T07:47:41.147Z,30.92
2019-04-05T07:48:45.730Z,39.58
2019-04-05T07:49:50.495Z,29.63
2019-04-05T07:50:54.952Z,30.43
2019-04-05T07:51:59.414Z,31.33
2019-04-05T07:53:03.950Z,35.78
2019-04-05T07:54:08.750Z,30.05
2019-04-05T07:55:13.347Z,28.55
2019-04-05T07:56:18.781Z,28.62
2019-04-05T07:57:23.244Z,28.65
2019-04-05T07:58:29.019Z,24.82
2019-04-05T07:59:33.496Z,33.67
2019-04-05T08:00:49.991Z,31.90
2019-04-05T08:01:54.447Z,26.60
2019-04-05T08:02:58.910Z,29.02
2019-04-05T08:04:03.760Z,28.38
2019-04-05T08:05:08.766Z,27.50
2019-04-05T08:06:13.367Z,31.25
2019-04-05T08:07:19.662Z,32.45
2019-04-05T08:08:39.123Z,29.23
2019-04-05T08:09:43.678Z,30.72
2019-04-05T08:10:48.208Z,35.90
2019-04-05T08:11:52.740Z,26.17
2019-04-05T08:12:58.539Z,28.73
2019-04-05T08:14:03.748Z,30.27
2019-04-05T08:15:10.421Z,30.52
2019-04-05T08:16:14.961Z,32.13
2019-04-05T08:17:19.421Z,30.90
2019-04-05T08:18:23.887Z,35.03
2019-04-05T08:19:28.382Z,29.77
2019-04-05T08:20:32.845Z,31.15
2019-04-05T08:21:37.319Z,31.73
2019-04-05T08:22:41.783Z,27.75
2019-04-05T08:23:46.248Z,35.35
2019-04-05T08:24:50.732Z,33.02
2019-04-05T08:25:55.263Z,34.88
2019-04-05T08:26:59.735Z,31.87
2019-04-05T08:28:06.746Z,33.98
2019-04-05T08:29:10.982Z,38.70
2019-04-05T08:30:16.058Z,36.83
2019-04-05T08:31:20.527Z,40.98
2019-04-05T08:32:25.392Z,39.48
2019-04-05T08:33:29.854Z,41.55
2019-04-05T08:34:34.370Z,42.45
2019-04-05T08:35:38.828Z,41.42
2019-04-05T08:36:43.295Z,46.02
2019-04-05T08:37:47.753Z,44.45
2019-04-05T08:38:52.221Z,45.35
2019-04-05T08:39:57.081Z,48.02
2019-04-05T08:41:01.540Z,47.50
2019-04-05T08:42:06.145Z,47.80
2019-04-05T08:43:10.896Z,47.85
2019-04-05T08:44:15.359Z,48.13
2019-04-05T08:45:19.983Z,51.83
2019-04-05T08:46:24.441Z,51.73
2019-04-05T08:47:28.911Z,49.88
2019-04-05T08:48:33.733Z,54.27
2019-04-05T08:49:38.216Z,53.33
2019-04-05T08:50:42.680Z,53.73
2019-04-05T08:51:47.534Z,56.85
2019-04-05T08:52:52.771Z,55.50
2019-04-05T08:53:57.241Z,53.48
2019-04-05T08:55:01.793Z,56.80
2019-04-05T08:56:06.731Z,62.17
2019-04-05T08:57:11.207Z,56.95
2019-04-05T08:58:15.695Z,60.45
2019-04-05T08:59:20.276Z,59.15
2019-04-05T09:00:25.382Z,61.55
2019-04-05T09:01:29.879Z,56.50
2019-04-05T09:02:34.717Z,56.68
2019-04-05T09:03:39.924Z,60.78
2019-04-05T09:04:44.396Z,62.05
2019-04-05T09:05:48.886Z,61.73
2019-04-05T09:06:53.343Z,62.78
2019-04-05T09:07:58.205Z,64.05
2019-04-05T09:09:03.322Z,64.42
2019-04-05T09:10:08.323Z,81.80
2019-04-05T09:11:12.868Z,70.20
2019-04-05T09:12:17.359Z,63.65
2019-04-05T09:13:22.196Z,69.65
2019-04-05T09:14:27.779Z,62.13
2019-04-05T09:15:32.414Z,65.25
2019-04-05T09:16:36.953Z,65.83
2019-04-05T09:17:41.432Z,64.12
2019-04-05T09:18:45.912Z,62.70
2019-04-05T09:19:50.375Z,67.82
2019-04-05T09:20:54.864Z,68.22
2019-04-05T09:21:59.704Z,78.10
2019-04-05T09:23:04.190Z,62.83
2019-04-05T09:24:09.065Z,68.15
2019-04-05T09:25:13.572Z,67.82
2019-04-05T09:26:18.396Z,66.67
2019-04-05T09:27:22.941Z,73.05
2019-04-05T09:28:29.029Z,62.75
2019-04-05T09:29:34.473Z,69.07
2019-04-05T09:30:39.308Z,72.95
2019-04-05T09:31:43.907Z,73.12
2019-04-05T09:32:48.382Z,70.97
2019-04-05T09:33:52.854Z,69.17
2019-04-05T09:34:57.321Z,69.70
2019-04-05T09:36:02.175Z,73.12
2019-04-05T09:37:06.995Z,71.28
2019-04-05T09:38:11.468Z,71.22
2019-04-05T09:39:16.032Z,73.07
2019-04-05T09:40:21.282Z,74.80
2019-04-05T09:41:25.845Z,74.77
2019-04-05T09:42:30.309Z,79.12
2019-04-05T09:43:34.770Z,78.52
2019-04-05T09:44:39.232Z,79.80
2019-04-05T09:45:43.720Z,78.40
2019-04-05T09:46:51.014Z,86.82
2019-04-05T09:47:54.420Z,77.25
2019-04-05T09:48:58.883Z,81.12
2019-04-05T09:50:04.723Z,82.72
2019-04-05T09:51:09.262Z,82.37
2019-04-05T09:52:13.670Z,78.78
2019-04-05T09:53:19.112Z,79.00
2019-04-05T09:54:23.904Z,85.97
2019-04-05T09:55:28.705Z,83.87
2019-04-05T09:56:33.190Z,82.88
2019-04-05T09:57:37.660Z,82.40
2019-04-05T09:58:42.117Z,84.87
2019-04-05T09:59:46.742Z,86.70
2019-04-05T10:00:51.705Z,85.07
2019-04-05T10:01:56.164Z,85.60
2019-04-05T10:03:00.689Z,84.25
2019-04-05T10:04:05.224Z,83.22
2019-04-05T10:05:09.759Z,91.57
2019-04-05T10:06:14.320Z,84.75
2019-04-05T10:07:19.190Z,85.70
2019-04-05T10:08:24.727Z,84.40
2019-04-05T10:09:29.196Z,82.37
2019-04-05T10:10:33.721Z,83.75
2019-04-05T10:11:38.227Z,84.83
2019-04-05T10:12:42.698Z,89.00
2019-04-05T10:13:47.151Z,86.87
2019-04-05T10:14:51.899Z,86.20
2019-04-05T10:15:56.390Z,94.17
2019-04-05T10:17:00.853Z,87.02
2019-04-05T10:18:05.495Z,92.20
2019-04-05T10:19:10.255Z,88.25
2019-04-05T10:20:14.965Z,89.20
2019-04-05T10:21:19.448Z,91.50
2019-04-05T10:22:23.978Z,91.53
2019-04-05T10:23:28.634Z,91.15
2019-04-05T10:24:33.268Z,94.40
2019-04-05T10:25:37.694Z,98.95
2019-04-05T10:26:43.256Z,96.87
2019-04-05T10:27:48.098Z,93.27
2019-04-05T10:28:52.937Z,94.87
2019-04-05T10:29:57.412Z,90.92
2019-04-05T10:31:01.894Z,96.82
2019-04-05T10:32:06.672Z,103.47
2019-04-05T10:33:11.483Z,97.05
2019-04-05T10:34:15.947Z,101.90
2019-04-05T10:35:20.808Z,99.07
2019-04-05T10:36:25.301Z,113.50
2019-04-05T10:37:29.762Z,95.55
2019-04-05T10:38:34.553Z,99.58
2019-04-05T10:39:39.021Z,101.33
2019-04-05T10:40:43.894Z,101.10
2019-04-05T10:41:48.713Z,101.38
2019-04-05T10:42:53.183Z,96.72
2019-04-05T10:43:58.583Z,99.45
2019-04-05T10:45:11.558Z,93.75
2019-04-05T10:46:16.040Z,94.70
2019-04-05T10:47:20.917Z,92.05
2019-04-05T10:48:25.711Z,96.72
2019-04-05T10:49:30.179Z,102.70
2019-04-05T10:50:34.925Z,96.97
2019-04-05T10:51:39.413Z,100.60
2019-04-05T10:52:43.883Z,100.72
2019-04-05T10:53:48.348Z,88.97
2019-04-05T10:54:53.198Z,95.07
2019-04-05T10:55:57.666Z,123.55
2019-04-05T10:57:02.162Z,99.35
2019-04-05T10:58:08.033Z,94.97
2019-04-05T10:59:12.501Z,96.35
2019-04-05T11:00:17.675Z,96.87
2019-04-05T11:01:22.231Z,102.17
2019-04-05T11:02:26.695Z,97.55
2019-04-05T11:03:31.556Z,99.28
2019-04-05T11:04:36.370Z,95.00
2019-04-05T11:05:41.194Z,98.35
2019-04-05T11:06:45.673Z,96.32
2019-04-05T11:07:50.208Z,96.20
2019-04-05T11:08:55.054Z,99.20
2019-04-05T11:09:59.501Z,98.78
2019-04-05T11:11:03.967Z,101.60
2019-04-05T11:12:09.494Z,97.45
2019-04-05T11:13:13.954Z,91.92
2019-04-05T11:14:18.428Z,103.42
2019-04-05T11:15:22.885Z,108.85
2019-04-05T11:16:27.548Z,98.35
2019-04-05T11:17:32.030Z,99.62
2019-04-05T11:18:36.815Z,93.47
2019-04-05T11:19:41.284Z,101.07
2019-04-05T11:20:48.800Z,103.55
2019-04-05T11:21:52.441Z,100.60
2019-04-05T11:22:58.409Z,95.60
2019-04-05T11:24:02.875Z,98.85
2019-04-05T11:25:08.372Z,95.45
2019-04-05T11:26:12.835Z,98.62
2019-04-05T11:27:17.689Z,87.67
2019-04-05T11:28:22.148Z,89.97
2019-04-05T11:29:26.626Z,100.55
2019-04-05T11:30:42.300Z,93.65
2019-04-05T11:31:56.932Z,91.92
2019-04-05T11:32:52.940Z,96.32
2019-04-05T11:33:58.307Z,95.12
2019-04-05T11:35:03.201Z,95.70
2019-04-05T11:36:08.627Z,100.75
2019-04-05T11:37:13.565Z,116.90
2019-04-05T11:38:18.800Z,106.67
2019-04-05T11:39:23.608Z,96.82
2019-04-05T11:40:28.425Z,96.95
2019-04-05T11:41:35.545Z,102.30
2019-04-05T11:42:40.873Z,98.78
2019-04-05T11:43:48.235Z,101.05
2019-04-05T11:44:55.797Z,100.20
2019-04-05T11:46:00.844Z,112.15
2019-04-05T11:47:05.499Z,144.37
2019-04-05T11:48:09.967Z,107.00
2019-04-05T11:49:15.079Z,94.92
2019-04-05T11:50:19.813Z,110.00
2019-04-05T11:51:24.349Z,102.32
2019-04-05T11:52:28.835Z,104.47
2019-04-05T11:53:33.642Z,102.30
2019-04-05T11:54:38.462Z,97.53
2019-04-05T11:55:46.289Z,93.75
2019-04-05T11:56:49.448Z,105.97
2019-04-05T11:57:54.877Z,105.85
2019-04-05T11:58:59.716Z,93.05
2019-04-05T12:00:20.953Z,98.17
2019-04-05T12:01:27.487Z,99.32
2019-04-05T12:02:39.273Z,99.62
2019-04-05T12:03:43.751Z,101.55
2019-04-05T12:04:48.214Z,96.35
2019-04-05T12:05:52.678Z,97.22
2019-04-05T12:06:57.145Z,99.55
2019-04-05T12:08:02.156Z,127.35
2019-04-05T12:09:08.864Z,104.78
2019-04-05T12:10:13.776Z,111.22
2019-04-05T12:11:18.608Z,101.90
2019-04-05T12:12:25.512Z,97.35
2019-04-05T12:13:29.250Z,103.95
2019-04-05T12:14:34.500Z,99.67
2019-04-05T12:15:39.885Z,103.70
2019-04-05T12:16:44.761Z,100.27
2019-04-05T12:17:49.520Z,108.00
2019-04-05T12:18:54.002Z,100.92
2019-04-05T12:20:00.592Z,100.85
2019-04-05T12:21:05.711Z,102.53
2019-04-05T12:22:10.362Z,102.05
2019-04-05T12:23:14.844Z,96.85
2019-04-05T12:24:19.305Z,95.60
2019-04-05T12:25:24.142Z,101.78
2019-04-05T12:26:28.765Z,96.55
2019-04-05T12:27:33.216Z,97.53
2019-04-05T12:28:37.697Z,91.78
2019-04-05T12:29:42.489Z,97.35
2019-04-05T12:30:48.515Z,90.75
2019-04-05T12:31:53.573Z,96.92
2019-04-05T12:32:58.093Z,92.88
2019-04-05T12:34:02.992Z,88.15
2019-04-05T12:35:08.696Z,91.30
2019-04-05T12:36:13.455Z,92.30
2019-04-05T12:37:17.924Z,94.32
2019-04-05T12:38:33.057Z,85.80
2019-04-05T12:39:37.850Z,85.92
2019-04-05T12:40:42.708Z,95.60
2019-04-05T12:41:48.551Z,92.05
2019-04-05T12:42:53.287Z,93.27
2019-04-05T12:43:57.875Z,81.92
2019-04-05T12:45:02.341Z,87.30
2019-04-05T12:46:06.983Z,87.50
2019-04-05T12:47:11.432Z,85.35
2019-04-05T12:48:16.643Z,95.60
2019-04-05T12:49:21.635Z,82.65
2019-04-05T12:50:26.456Z,84.77
2019-04-05T12:51:30.915Z,82.20
2019-04-05T12:52:35.377Z,78.47
2019-04-05T12:53:40.099Z,82.88
2019-04-05T12:54:44.565Z,86.67
2019-04-05T12:55:49.038Z,83.60
2019-04-05T12:56:54.274Z,82.05
2019-04-05T12:57:58.835Z,85.28
2019-04-05T12:59:03.680Z,84.30
2019-04-05T13:00:13.396Z,93.58
2019-04-05T13:01:17.518Z,82.00
2019-04-05T13:02:33.019Z,90.15
2019-04-05T13:03:28.168Z,82.85
2019-04-05T13:04:32.630Z,82.10
2019-04-05T13:05:37.096Z,82.95
2019-04-05T13:06:42.336Z,77.92
2019-04-05T13:07:46.902Z,80.87
2019-04-05T13:08:53.650Z,78.15
2019-04-05T13:09:57.776Z,81.87
2019-04-05T13:11:02.386Z,79.72
2019-04-05T13:12:06.842Z,90.12
2019-04-05T13:13:11.676Z,80.30
2019-04-05T13:14:16.183Z,75.42
2019-04-05T13:15:21.019Z,74.82
2019-04-05T13:16:25.473Z,76.10
2019-04-05T13:17:31.301Z,76.87
2019-04-05T13:18:36.591Z,73.72
2019-04-05T13:19:41.043Z,81.20
2019-04-05T13:20:45.508Z,85.40
2019-04-05T13:21:51.040Z,73.78
2019-04-05T13:22:55.795Z,75.37
2019-04-05T13:24:00.276Z,75.20
2019-04-05T13:25:10.687Z,75.05
2019-04-05T13:26:13.398Z,75.22
2019-04-05T13:27:17.866Z,74.50
2019-04-05T13:28:22.322Z,77.95
2019-04-05T13:29:26.806Z,73.87
2019-04-05T13:30:31.786Z,67.65
2019-04-05T13:31:36.248Z,75.28
2019-04-05T13:32:41.077Z,71.22
2019-04-05T13:33:45.564Z,74.47
2019-04-05T13:34:50.032Z,69.72
2019-04-05T13:35:54.602Z,84.30
2019-04-05T13:37:01.407Z,78.40
2019-04-05T13:38:06.008Z,73.30
2019-04-05T13:39:10.478Z,78.35
2019-04-05T13:40:15.428Z,71.05
2019-04-05T13:41:19.896Z,69.03
2019-04-05T13:42:24.669Z,71.70
2019-04-05T13:43:29.838Z,68.25
2019-04-05T13:44:36.042Z,73.85
2019-04-05T13:45:41.893Z,69.50
2019-04-05T13:46:46.355Z,68.90
2019-04-05T13:47:50.820Z,69.07
2019-04-05T13:48:55.286Z,70.80
2019-04-05T13:49:59.792Z,70.55
2019-04-05T13:51:07.088Z,80.72
2019-04-05T13:52:12.096Z,71.53
2019-04-05T13:53:16.585Z,67.12
2019-04-05T13:54:21.470Z,74.72
2019-04-05T13:55:25.926Z,87.50
2019-04-05T13:56:30.703Z,69.25